
<gpx xmlns="http://www.topografix.com/GPX/1/1" xmlns:gpxx="http://www.garmin.com/xmlschemas/GpxExtensions/v3" xmlns:xsi="http://www.w3.org/2001/XMLSchema-instance" version="1.1" creator="Adze - https://getadze.com/" xsi:schemaLocation="http://www.topografix.com/GPX/1/1 http://www.topografix.com/GPX/1/1/gpx.xsd http://www.garmin.com/xmlschemas/GpxExtensions/v3 http://www.garmin.com/xmlschemas/GpxExtensionsv3.xsd">
    <metadata>
        <name>Untitled Document</name>
        <time>2018-03-05T03:02:46.702Z</time>
    </metadata>
    <trk>
        <name>December 2004 - Sunday</name>
        <extensions>
            <gpxx:TrackExtension>
                <gpxx:DisplayColor>DarkRed</gpxx:DisplayColor>
            </gpxx:TrackExtension>
        </extensions>
        <trkseg>
            <trkpt lon="101.386921" lat="14.620786">
                <ele>457.244263</ele>
                <time>2004-12-12T03:22:01Z</time>
            </trkpt>
            <trkpt lon="101.386900" lat="14.620807">
                <ele>457.244263</ele>
                <time>2004-12-12T03:22:02Z</time>
            </trkpt>
            <trkpt lon="101.386857" lat="14.620764">
                <ele>457.244263</ele>
                <time>2004-12-12T03:22:21Z</time>
            </trkpt>
            <trkpt lon="101.386921" lat="14.620721">
                <ele>420.233398</ele>
                <time>2004-12-12T03:28:17Z</time>
            </trkpt>
            <trkpt lon="101.386878" lat="14.620721">
                <ele>420.233398</ele>
                <time>2004-12-12T03:29:37Z</time>
            </trkpt>
            <trkpt lon="101.386857" lat="14.620721">
                <ele>422.156006</ele>
                <time>2004-12-12T03:32:40Z</time>
            </trkpt>
            <trkpt lon="101.386471" lat="14.620743">
                <ele>420.714111</ele>
                <time>2004-12-12T03:32:59Z</time>
            </trkpt>
            <trkpt lon="101.385806" lat="14.620743">
                <ele>419.272217</ele>
                <time>2004-12-12T03:33:15Z</time>
            </trkpt>
            <trkpt lon="101.385334" lat="14.620893">
                <ele>415.907471</ele>
                <time>2004-12-12T03:33:30Z</time>
            </trkpt>
            <trkpt lon="101.385441" lat="14.621537">
                <ele>409.659058</ele>
                <time>2004-12-12T03:33:45Z</time>
            </trkpt>
            <trkpt lon="101.385548" lat="14.622588">
                <ele>401.968506</ele>
                <time>2004-12-12T03:34:06Z</time>
            </trkpt>
            <trkpt lon="101.385548" lat="14.622867">
                <ele>401.007080</ele>
                <time>2004-12-12T03:34:13Z</time>
            </trkpt>
            <trkpt lon="101.385162" lat="14.622953">
                <ele>404.371704</ele>
                <time>2004-12-12T03:34:24Z</time>
            </trkpt>
            <trkpt lon="101.384282" lat="14.622996">
                <ele>407.255615</ele>
                <time>2004-12-12T03:34:44Z</time>
            </trkpt>
            <trkpt lon="101.383574" lat="14.622996">
                <ele>406.774902</ele>
                <time>2004-12-12T03:34:59Z</time>
            </trkpt>
            <trkpt lon="101.383338" lat="14.623125">
                <ele>406.294312</ele>
                <time>2004-12-12T03:35:04Z</time>
            </trkpt>
            <trkpt lon="101.382995" lat="14.623404">
                <ele>406.294312</ele>
                <time>2004-12-12T03:35:13Z</time>
            </trkpt>
            <trkpt lon="101.382608" lat="14.623382">
                <ele>404.852295</ele>
                <time>2004-12-12T03:35:21Z</time>
            </trkpt>
            <trkpt lon="101.381836" lat="14.622996">
                <ele>402.929688</ele>
                <time>2004-12-12T03:35:37Z</time>
            </trkpt>
            <trkpt lon="101.381106" lat="14.622588">
                <ele>404.371704</ele>
                <time>2004-12-12T03:35:54Z</time>
            </trkpt>
            <trkpt lon="101.380785" lat="14.622438">
                <ele>404.852295</ele>
                <time>2004-12-12T03:36:01Z</time>
            </trkpt>
            <trkpt lon="101.379926" lat="14.622159">
                <ele>404.852295</ele>
                <time>2004-12-12T03:36:19Z</time>
            </trkpt>
            <trkpt lon="101.379776" lat="14.622138">
                <ele>404.852295</ele>
                <time>2004-12-12T03:36:22Z</time>
            </trkpt>
            <trkpt lon="101.379583" lat="14.622180">
                <ele>404.371704</ele>
                <time>2004-12-12T03:36:26Z</time>
            </trkpt>
            <trkpt lon="101.379433" lat="14.622159">
                <ele>403.891113</ele>
                <time>2004-12-12T03:36:30Z</time>
            </trkpt>
            <trkpt lon="101.378961" lat="14.621580">
                <ele>405.333008</ele>
                <time>2004-12-12T03:36:48Z</time>
            </trkpt>
            <trkpt lon="101.378510" lat="14.621279">
                <ele>406.774902</ele>
                <time>2004-12-12T03:37:03Z</time>
            </trkpt>
            <trkpt lon="101.377866" lat="14.620850">
                <ele>408.697632</ele>
                <time>2004-12-12T03:37:20Z</time>
            </trkpt>
            <trkpt lon="101.377523" lat="14.620593">
                <ele>410.139648</ele>
                <time>2004-12-12T03:37:30Z</time>
            </trkpt>
            <trkpt lon="101.376729" lat="14.620421">
                <ele>412.542847</ele>
                <time>2004-12-12T03:37:50Z</time>
            </trkpt>
            <trkpt lon="101.376150" lat="14.620292">
                <ele>413.984863</ele>
                <time>2004-12-12T03:38:07Z</time>
            </trkpt>
            <trkpt lon="101.375763" lat="14.619992">
                <ele>415.426880</ele>
                <time>2004-12-12T03:38:22Z</time>
            </trkpt>
            <trkpt lon="101.375356" lat="14.619370">
                <ele>419.272217</ele>
                <time>2004-12-12T03:38:46Z</time>
            </trkpt>
            <trkpt lon="101.375120" lat="14.618962">
                <ele>422.156006</ele>
                <time>2004-12-12T03:39:02Z</time>
            </trkpt>
            <trkpt lon="101.374905" lat="14.618576">
                <ele>424.559448</ele>
                <time>2004-12-12T03:39:20Z</time>
            </trkpt>
            <trkpt lon="101.374755" lat="14.618318">
                <ele>425.520752</ele>
                <time>2004-12-12T03:39:35Z</time>
            </trkpt>
            <trkpt lon="101.374626" lat="14.617996">
                <ele>427.923950</ele>
                <time>2004-12-12T03:39:51Z</time>
            </trkpt>
            <trkpt lon="101.374648" lat="14.617460">
                <ele>430.327271</ele>
                <time>2004-12-12T03:40:09Z</time>
            </trkpt>
            <trkpt lon="101.374583" lat="14.616859">
                <ele>432.250000</ele>
                <time>2004-12-12T03:40:27Z</time>
            </trkpt>
            <trkpt lon="101.374454" lat="14.616494">
                <ele>433.211304</ele>
                <time>2004-12-12T03:40:42Z</time>
            </trkpt>
            <trkpt lon="101.374283" lat="14.615829">
                <ele>434.653320</ele>
                <time>2004-12-12T03:41:02Z</time>
            </trkpt>
            <trkpt lon="101.374111" lat="14.615228">
                <ele>435.133911</ele>
                <time>2004-12-12T03:41:20Z</time>
            </trkpt>
            <trkpt lon="101.374047" lat="14.614499">
                <ele>434.172607</ele>
                <time>2004-12-12T03:41:37Z</time>
            </trkpt>
            <trkpt lon="101.374111" lat="14.614284">
                <ele>434.172607</ele>
                <time>2004-12-12T03:41:42Z</time>
            </trkpt>
            <trkpt lon="101.374090" lat="14.614048">
                <ele>434.172607</ele>
                <time>2004-12-12T03:41:47Z</time>
            </trkpt>
            <trkpt lon="101.373618" lat="14.613361">
                <ele>433.691895</ele>
                <time>2004-12-12T03:42:03Z</time>
            </trkpt>
            <trkpt lon="101.373510" lat="14.613233">
                <ele>433.691895</ele>
                <time>2004-12-12T03:42:06Z</time>
            </trkpt>
            <trkpt lon="101.373296" lat="14.612331">
                <ele>432.250000</ele>
                <time>2004-12-12T03:42:23Z</time>
            </trkpt>
            <trkpt lon="101.373274" lat="14.612224">
                <ele>432.730713</ele>
                <time>2004-12-12T03:42:25Z</time>
            </trkpt>
            <trkpt lon="101.372995" lat="14.611623">
                <ele>431.769165</ele>
                <time>2004-12-12T03:42:37Z</time>
            </trkpt>
            <trkpt lon="101.372523" lat="14.611323">
                <ele>431.288574</ele>
                <time>2004-12-12T03:42:47Z</time>
            </trkpt>
            <trkpt lon="101.372416" lat="14.611280">
                <ele>430.807983</ele>
                <time>2004-12-12T03:42:49Z</time>
            </trkpt>
            <trkpt lon="101.372201" lat="14.611259">
                <ele>431.288574</ele>
                <time>2004-12-12T03:42:53Z</time>
            </trkpt>
            <trkpt lon="101.371944" lat="14.611280">
                <ele>431.769165</ele>
                <time>2004-12-12T03:42:58Z</time>
            </trkpt>
            <trkpt lon="101.371772" lat="14.611366">
                <ele>432.250000</ele>
                <time>2004-12-12T03:43:02Z</time>
            </trkpt>
            <trkpt lon="101.371686" lat="14.611409">
                <ele>432.730713</ele>
                <time>2004-12-12T03:43:04Z</time>
            </trkpt>
            <trkpt lon="101.370935" lat="14.611945">
                <ele>435.614502</ele>
                <time>2004-12-12T03:43:27Z</time>
            </trkpt>
            <trkpt lon="101.370420" lat="14.611967">
                <ele>436.095215</ele>
                <time>2004-12-12T03:43:40Z</time>
            </trkpt>
            <trkpt lon="101.370077" lat="14.611773">
                <ele>437.056519</ele>
                <time>2004-12-12T03:43:49Z</time>
            </trkpt>
            <trkpt lon="101.369841" lat="14.611559">
                <ele>438.017822</ele>
                <time>2004-12-12T03:43:56Z</time>
            </trkpt>
            <trkpt lon="101.369283" lat="14.611387">
                <ele>437.537109</ele>
                <time>2004-12-12T03:44:08Z</time>
            </trkpt>
            <trkpt lon="101.368296" lat="14.611237">
                <ele>436.095215</ele>
                <time>2004-12-12T03:44:27Z</time>
            </trkpt>
            <trkpt lon="101.367309" lat="14.611087">
                <ele>436.095215</ele>
                <time>2004-12-12T03:44:46Z</time>
            </trkpt>
            <trkpt lon="101.366537" lat="14.611001">
                <ele>436.575928</ele>
                <time>2004-12-12T03:45:02Z</time>
            </trkpt>
            <trkpt lon="101.365657" lat="14.610894">
                <ele>437.537109</ele>
                <time>2004-12-12T03:45:22Z</time>
            </trkpt>
            <trkpt lon="101.364734" lat="14.610786">
                <ele>438.979126</ele>
                <time>2004-12-12T03:45:43Z</time>
            </trkpt>
            <trkpt lon="101.364563" lat="14.610765">
                <ele>438.979126</ele>
                <time>2004-12-12T03:45:47Z</time>
            </trkpt>
            <trkpt lon="101.363726" lat="14.610529">
                <ele>441.863159</ele>
                <time>2004-12-12T03:46:09Z</time>
            </trkpt>
            <trkpt lon="101.362975" lat="14.610443">
                <ele>443.785767</ele>
                <time>2004-12-12T03:46:29Z</time>
            </trkpt>
            <trkpt lon="101.362202" lat="14.610207">
                <ele>447.150269</ele>
                <time>2004-12-12T03:46:50Z</time>
            </trkpt>
            <trkpt lon="101.361430" lat="14.610035">
                <ele>449.072998</ele>
                <time>2004-12-12T03:47:10Z</time>
            </trkpt>
            <trkpt lon="101.361258" lat="14.610014">
                <ele>449.553711</ele>
                <time>2004-12-12T03:47:20Z</time>
            </trkpt>
            <trkpt lon="101.361258" lat="14.610014">
                <ele>449.553711</ele>
                <time>2004-12-12T03:47:53Z</time>
            </trkpt>
            <trkpt lon="101.361237" lat="14.610014">
                <ele>449.553711</ele>
                <time>2004-12-12T03:48:28Z</time>
            </trkpt>
            <trkpt lon="101.361108" lat="14.610207">
                <ele>450.515015</ele>
                <time>2004-12-12T03:48:40Z</time>
            </trkpt>
            <trkpt lon="101.361258" lat="14.610744">
                <ele>450.515015</ele>
                <time>2004-12-12T03:48:55Z</time>
            </trkpt>
            <trkpt lon="101.361322" lat="14.610872">
                <ele>450.034424</ele>
                <time>2004-12-12T03:48:58Z</time>
            </trkpt>
            <trkpt lon="101.357160" lat="14.616859">
                <ele>439.459717</ele>
                <time>2004-12-12T03:52:39Z</time>
            </trkpt>
            <trkpt lon="101.356966" lat="14.617031">
                <ele>438.979126</ele>
                <time>2004-12-12T03:52:41Z</time>
            </trkpt>
            <trkpt lon="101.356924" lat="14.616902">
                <ele>439.459717</ele>
                <time>2004-12-12T03:52:43Z</time>
            </trkpt>
            <trkpt lon="101.356795" lat="14.617009">
                <ele>425.520752</ele>
                <time>2004-12-12T03:52:52Z</time>
            </trkpt>
            <trkpt lon="101.356795" lat="14.617009">
                <ele>426.482056</ele>
                <time>2004-12-12T03:52:54Z</time>
            </trkpt>
            <trkpt lon="101.356838" lat="14.617116">
                <ele>426.482056</ele>
                <time>2004-12-12T03:52:59Z</time>
            </trkpt>
            <trkpt lon="101.357095" lat="14.617760">
                <ele>425.040161</ele>
                <time>2004-12-12T03:53:14Z</time>
            </trkpt>
            <trkpt lon="101.357095" lat="14.617803">
                <ele>425.040161</ele>
                <time>2004-12-12T03:53:15Z</time>
            </trkpt>
            <trkpt lon="101.357009" lat="14.618146">
                <ele>425.520752</ele>
                <time>2004-12-12T03:53:22Z</time>
            </trkpt>
            <trkpt lon="101.356494" lat="14.618747">
                <ele>423.598022</ele>
                <time>2004-12-12T03:53:36Z</time>
            </trkpt>
            <trkpt lon="101.355550" lat="14.619434">
                <ele>424.078735</ele>
                <time>2004-12-12T03:53:54Z</time>
            </trkpt>
            <trkpt lon="101.354821" lat="14.619498">
                <ele>424.559448</ele>
                <time>2004-12-12T03:54:06Z</time>
            </trkpt>
            <trkpt lon="101.354048" lat="14.619691">
                <ele>421.675415</ele>
                <time>2004-12-12T03:54:20Z</time>
            </trkpt>
            <trkpt lon="101.353297" lat="14.619970">
                <ele>419.752808</ele>
                <time>2004-12-12T03:54:34Z</time>
            </trkpt>
            <trkpt lon="101.353168" lat="14.620142">
                <ele>418.310791</ele>
                <time>2004-12-12T03:54:38Z</time>
            </trkpt>
            <trkpt lon="101.353126" lat="14.620249">
                <ele>417.830200</ele>
                <time>2004-12-12T03:54:40Z</time>
            </trkpt>
            <trkpt lon="101.352975" lat="14.620378">
                <ele>417.830200</ele>
                <time>2004-12-12T03:54:44Z</time>
            </trkpt>
            <trkpt lon="101.352782" lat="14.620507">
                <ele>418.791504</ele>
                <time>2004-12-12T03:54:54Z</time>
            </trkpt>
            <trkpt lon="101.352718" lat="14.620464">
                <ele>419.272217</ele>
                <time>2004-12-12T03:55:27Z</time>
            </trkpt>
            <trkpt lon="101.352546" lat="14.620013">
                <ele>420.714111</ele>
                <time>2004-12-12T03:55:42Z</time>
            </trkpt>
            <trkpt lon="101.352139" lat="14.619091">
                <ele>424.078735</ele>
                <time>2004-12-12T03:56:07Z</time>
            </trkpt>
            <trkpt lon="101.351838" lat="14.618361">
                <ele>426.482056</ele>
                <time>2004-12-12T03:56:26Z</time>
            </trkpt>
            <trkpt lon="101.351559" lat="14.617739">
                <ele>428.404663</ele>
                <time>2004-12-12T03:56:44Z</time>
            </trkpt>
            <trkpt lon="101.351430" lat="14.617481">
                <ele>428.885376</ele>
                <time>2004-12-12T03:56:51Z</time>
            </trkpt>
            <trkpt lon="101.351194" lat="14.616945">
                <ele>430.327271</ele>
                <time>2004-12-12T03:57:05Z</time>
            </trkpt>
            <trkpt lon="101.351023" lat="14.616494">
                <ele>430.807983</ele>
                <time>2004-12-12T03:57:16Z</time>
            </trkpt>
            <trkpt lon="101.350873" lat="14.616194">
                <ele>432.250000</ele>
                <time>2004-12-12T03:57:24Z</time>
            </trkpt>
            <trkpt lon="101.350615" lat="14.615550">
                <ele>433.211304</ele>
                <time>2004-12-12T03:57:41Z</time>
            </trkpt>
            <trkpt lon="101.350572" lat="14.615400">
                <ele>433.211304</ele>
                <time>2004-12-12T03:57:44Z</time>
            </trkpt>
            <trkpt lon="101.350508" lat="14.615271">
                <ele>433.211304</ele>
                <time>2004-12-12T03:57:47Z</time>
            </trkpt>
            <trkpt lon="101.350465" lat="14.615185">
                <ele>433.211304</ele>
                <time>2004-12-12T03:57:49Z</time>
            </trkpt>
            <trkpt lon="101.350229" lat="14.614520">
                <ele>434.172607</ele>
                <time>2004-12-12T03:58:08Z</time>
            </trkpt>
            <trkpt lon="101.350079" lat="14.614198">
                <ele>434.653320</ele>
                <time>2004-12-12T03:58:19Z</time>
            </trkpt>
            <trkpt lon="101.349993" lat="14.613962">
                <ele>435.133911</ele>
                <time>2004-12-12T03:58:27Z</time>
            </trkpt>
            <trkpt lon="101.349971" lat="14.614027">
                <ele>434.653320</ele>
                <time>2004-12-12T03:58:34Z</time>
            </trkpt>
            <trkpt lon="101.350057" lat="14.614134">
                <ele>434.653320</ele>
                <time>2004-12-12T03:58:38Z</time>
            </trkpt>
            <trkpt lon="101.350422" lat="14.614971">
                <ele>433.211304</ele>
                <time>2004-12-12T03:58:56Z</time>
            </trkpt>
            <trkpt lon="101.350830" lat="14.616022">
                <ele>432.730713</ele>
                <time>2004-12-12T03:59:15Z</time>
            </trkpt>
            <trkpt lon="101.351087" lat="14.616773">
                <ele>431.769165</ele>
                <time>2004-12-12T03:59:29Z</time>
            </trkpt>
            <trkpt lon="101.351538" lat="14.617782">
                <ele>428.404663</ele>
                <time>2004-12-12T03:59:48Z</time>
            </trkpt>
            <trkpt lon="101.352053" lat="14.618940">
                <ele>423.598022</ele>
                <time>2004-12-12T04:00:09Z</time>
            </trkpt>
            <trkpt lon="101.352460" lat="14.619927">
                <ele>421.194824</ele>
                <time>2004-12-12T04:00:27Z</time>
            </trkpt>
            <trkpt lon="101.352718" lat="14.620421">
                <ele>420.233398</ele>
                <time>2004-12-12T04:00:40Z</time>
            </trkpt>
            <trkpt lon="101.352739" lat="14.620421">
                <ele>420.233398</ele>
                <time>2004-12-12T04:00:56Z</time>
            </trkpt>
            <trkpt lon="101.352761" lat="14.620399">
                <ele>419.272217</ele>
                <time>2004-12-12T04:01:26Z</time>
            </trkpt>
            <trkpt lon="101.352739" lat="14.620421">
                <ele>420.233398</ele>
                <time>2004-12-12T04:01:47Z</time>
            </trkpt>
            <trkpt lon="101.353083" lat="14.620206">
                <ele>420.714111</ele>
                <time>2004-12-12T04:01:58Z</time>
            </trkpt>
            <trkpt lon="101.353447" lat="14.619799">
                <ele>421.194824</ele>
                <time>2004-12-12T04:02:13Z</time>
            </trkpt>
            <trkpt lon="101.354177" lat="14.619498">
                <ele>420.233398</ele>
                <time>2004-12-12T04:02:32Z</time>
            </trkpt>
            <trkpt lon="101.354220" lat="14.619477">
                <ele>420.233398</ele>
                <time>2004-12-12T04:02:33Z</time>
            </trkpt>
            <trkpt lon="101.354928" lat="14.619284">
                <ele>421.194824</ele>
                <time>2004-12-12T04:02:51Z</time>
            </trkpt>
            <trkpt lon="101.355422" lat="14.619284">
                <ele>420.714111</ele>
                <time>2004-12-12T04:03:03Z</time>
            </trkpt>
            <trkpt lon="101.356087" lat="14.619026">
                <ele>421.675415</ele>
                <time>2004-12-12T04:03:20Z</time>
            </trkpt>
            <trkpt lon="101.356902" lat="14.618211">
                <ele>422.156006</ele>
                <time>2004-12-12T04:03:47Z</time>
            </trkpt>
            <trkpt lon="101.357117" lat="14.617696">
                <ele>421.675415</ele>
                <time>2004-12-12T04:04:05Z</time>
            </trkpt>
            <trkpt lon="101.357031" lat="14.617395">
                <ele>421.675415</ele>
                <time>2004-12-12T04:04:19Z</time>
            </trkpt>
            <trkpt lon="101.356645" lat="14.616945">
                <ele>423.598022</ele>
                <time>2004-12-12T04:04:37Z</time>
            </trkpt>
            <trkpt lon="101.356516" lat="14.616752">
                <ele>424.078735</ele>
                <time>2004-12-12T04:04:43Z</time>
            </trkpt>
            <trkpt lon="101.356409" lat="14.616044">
                <ele>427.443359</ele>
                <time>2004-12-12T04:05:01Z</time>
            </trkpt>
            <trkpt lon="101.356215" lat="14.615164">
                <ele>430.327271</ele>
                <time>2004-12-12T04:05:22Z</time>
            </trkpt>
            <trkpt lon="101.356194" lat="14.614606">
                <ele>428.404663</ele>
                <time>2004-12-12T04:05:37Z</time>
            </trkpt>
            <trkpt lon="101.356816" lat="14.613791">
                <ele>430.327271</ele>
                <time>2004-12-12T04:06:02Z</time>
            </trkpt>
            <trkpt lon="101.356988" lat="14.613297">
                <ele>430.807983</ele>
                <time>2004-12-12T04:06:20Z</time>
            </trkpt>
            <trkpt lon="101.356795" lat="14.612761">
                <ele>432.730713</ele>
                <time>2004-12-12T04:06:36Z</time>
            </trkpt>
            <trkpt lon="101.356559" lat="14.612052">
                <ele>436.575928</ele>
                <time>2004-12-12T04:06:56Z</time>
            </trkpt>
            <trkpt lon="101.356366" lat="14.611495">
                <ele>439.459717</ele>
                <time>2004-12-12T04:07:14Z</time>
            </trkpt>
            <trkpt lon="101.356173" lat="14.610937">
                <ele>443.305054</ele>
                <time>2004-12-12T04:07:32Z</time>
            </trkpt>
            <trkpt lon="101.356022" lat="14.610529">
                <ele>446.669678</ele>
                <time>2004-12-12T04:07:49Z</time>
            </trkpt>
            <trkpt lon="101.355937" lat="14.610250">
                <ele>447.630981</ele>
                <time>2004-12-12T04:08:08Z</time>
            </trkpt>
            <trkpt lon="101.355851" lat="14.609928">
                <ele>450.515015</ele>
                <time>2004-12-12T04:08:29Z</time>
            </trkpt>
            <trkpt lon="101.355722" lat="14.609520">
                <ele>452.918213</ele>
                <time>2004-12-12T04:08:47Z</time>
            </trkpt>
            <trkpt lon="101.355550" lat="14.609027">
                <ele>453.398926</ele>
                <time>2004-12-12T04:09:01Z</time>
            </trkpt>
            <trkpt lon="101.355529" lat="14.608920">
                <ele>453.398926</ele>
                <time>2004-12-12T04:09:10Z</time>
            </trkpt>
            <trkpt lon="101.355529" lat="14.608941">
                <ele>453.398926</ele>
                <time>2004-12-12T04:09:17Z</time>
            </trkpt>
            <trkpt lon="101.355507" lat="14.608963">
                <ele>452.918213</ele>
                <time>2004-12-12T04:09:21Z</time>
            </trkpt>
            <trkpt lon="101.355422" lat="14.608984">
                <ele>452.437622</ele>
                <time>2004-12-12T04:09:25Z</time>
            </trkpt>
            <trkpt lon="101.354992" lat="14.609005">
                <ele>451.476318</ele>
                <time>2004-12-12T04:09:42Z</time>
            </trkpt>
            <trkpt lon="101.354520" lat="14.609070">
                <ele>450.995605</ele>
                <time>2004-12-12T04:10:00Z</time>
            </trkpt>
            <trkpt lon="101.353920" lat="14.609134">
                <ele>451.476318</ele>
                <time>2004-12-12T04:10:19Z</time>
            </trkpt>
            <trkpt lon="101.353447" lat="14.609177">
                <ele>451.476318</ele>
                <time>2004-12-12T04:10:35Z</time>
            </trkpt>
            <trkpt lon="101.353297" lat="14.609241">
                <ele>451.476318</ele>
                <time>2004-12-12T04:10:42Z</time>
            </trkpt>
            <trkpt lon="101.353362" lat="14.609606">
                <ele>455.802246</ele>
                <time>2004-12-12T04:10:58Z</time>
            </trkpt>
            <trkpt lon="101.353426" lat="14.610057">
                <ele>455.321533</ele>
                <time>2004-12-12T04:11:16Z</time>
            </trkpt>
            <trkpt lon="101.353426" lat="14.610078">
                <ele>454.360229</ele>
                <time>2004-12-12T04:11:20Z</time>
            </trkpt>
            <trkpt lon="101.353426" lat="14.610078">
                <ele>453.879639</ele>
                <time>2004-12-12T04:11:25Z</time>
            </trkpt>
            <trkpt lon="101.353447" lat="14.610422">
                <ele>452.437622</ele>
                <time>2004-12-12T04:11:37Z</time>
            </trkpt>
            <trkpt lon="101.353362" lat="14.610980">
                <ele>449.553711</ele>
                <time>2004-12-12T04:11:55Z</time>
            </trkpt>
            <trkpt lon="101.353233" lat="14.611323">
                <ele>449.072998</ele>
                <time>2004-12-12T04:12:10Z</time>
            </trkpt>
            <trkpt lon="101.353126" lat="14.611666">
                <ele>451.476318</ele>
                <time>2004-12-12T04:12:29Z</time>
            </trkpt>
            <trkpt lon="101.353018" lat="14.611666">
                <ele>452.918213</ele>
                <time>2004-12-12T04:12:46Z</time>
            </trkpt>
            <trkpt lon="101.353018" lat="14.611645">
                <ele>453.879639</ele>
                <time>2004-12-12T04:13:15Z</time>
            </trkpt>
            <trkpt lon="101.353018" lat="14.611688">
                <ele>455.321533</ele>
                <time>2004-12-12T04:13:43Z</time>
            </trkpt>
            <trkpt lon="101.352997" lat="14.611645">
                <ele>451.957031</ele>
                <time>2004-12-12T04:14:50Z</time>
            </trkpt>
            <trkpt lon="101.352997" lat="14.611666">
                <ele>451.957031</ele>
                <time>2004-12-12T04:15:09Z</time>
            </trkpt>
            <trkpt lon="101.352847" lat="14.611688">
                <ele>450.995605</ele>
                <time>2004-12-12T04:15:23Z</time>
            </trkpt>
            <trkpt lon="101.352804" lat="14.611666">
                <ele>451.476318</ele>
                <time>2004-12-12T04:15:27Z</time>
            </trkpt>
            <trkpt lon="101.352696" lat="14.611645">
                <ele>450.995605</ele>
                <time>2004-12-12T04:15:37Z</time>
            </trkpt>
            <trkpt lon="101.352589" lat="14.611709">
                <ele>451.957031</ele>
                <time>2004-12-12T04:15:49Z</time>
            </trkpt>
            <trkpt lon="101.352460" lat="14.611773">
                <ele>452.437622</ele>
                <time>2004-12-12T04:16:04Z</time>
            </trkpt>
            <trkpt lon="101.352375" lat="14.611859">
                <ele>452.437622</ele>
                <time>2004-12-12T04:16:16Z</time>
            </trkpt>
            <trkpt lon="101.351902" lat="14.612138">
                <ele>452.918213</ele>
                <time>2004-12-12T04:16:34Z</time>
            </trkpt>
            <trkpt lon="101.351345" lat="14.612310">
                <ele>454.840820</ele>
                <time>2004-12-12T04:16:48Z</time>
            </trkpt>
            <trkpt lon="101.350808" lat="14.612525">
                <ele>452.918213</ele>
                <time>2004-12-12T04:17:04Z</time>
            </trkpt>
            <trkpt lon="101.350744" lat="14.612503">
                <ele>452.918213</ele>
                <time>2004-12-12T04:17:08Z</time>
            </trkpt>
            <trkpt lon="101.350765" lat="14.612396">
                <ele>451.476318</ele>
                <time>2004-12-12T04:17:15Z</time>
            </trkpt>
            <trkpt lon="101.350722" lat="14.611945">
                <ele>449.072998</ele>
                <time>2004-12-12T04:17:32Z</time>
            </trkpt>
            <trkpt lon="101.350722" lat="14.611323">
                <ele>447.150269</ele>
                <time>2004-12-12T04:17:52Z</time>
            </trkpt>
            <trkpt lon="101.350787" lat="14.610872">
                <ele>448.592407</ele>
                <time>2004-12-12T04:18:12Z</time>
            </trkpt>
            <trkpt lon="101.350765" lat="14.610422">
                <ele>450.515015</ele>
                <time>2004-12-12T04:18:31Z</time>
            </trkpt>
            <trkpt lon="101.350873" lat="14.609993">
                <ele>450.034424</ele>
                <time>2004-12-12T04:18:48Z</time>
            </trkpt>
            <trkpt lon="101.350980" lat="14.609435">
                <ele>451.957031</ele>
                <time>2004-12-12T04:19:07Z</time>
            </trkpt>
            <trkpt lon="101.351001" lat="14.609284">
                <ele>452.437622</ele>
                <time>2004-12-12T04:19:14Z</time>
            </trkpt>
            <trkpt lon="101.350937" lat="14.609284">
                <ele>452.437622</ele>
                <time>2004-12-12T04:19:18Z</time>
            </trkpt>
            <trkpt lon="101.350379" lat="14.609241">
                <ele>451.476318</ele>
                <time>2004-12-12T04:19:36Z</time>
            </trkpt>
            <trkpt lon="101.350036" lat="14.609199">
                <ele>454.840820</ele>
                <time>2004-12-12T04:19:50Z</time>
            </trkpt>
            <trkpt lon="101.349370" lat="14.609134">
                <ele>456.763550</ele>
                <time>2004-12-12T04:20:08Z</time>
            </trkpt>
            <trkpt lon="101.349285" lat="14.609134">
                <ele>456.282959</ele>
                <time>2004-12-12T04:20:10Z</time>
            </trkpt>
            <trkpt lon="101.348705" lat="14.609070">
                <ele>454.840820</ele>
                <time>2004-12-12T04:20:24Z</time>
            </trkpt>
            <trkpt lon="101.347568" lat="14.610915">
                <ele>456.763550</ele>
                <time>2004-12-12T04:24:15Z</time>
            </trkpt>
            <trkpt lon="101.347547" lat="14.611022">
                <ele>454.360229</ele>
                <time>2004-12-12T04:24:21Z</time>
            </trkpt>
            <trkpt lon="101.347589" lat="14.610980">
                <ele>462.531372</ele>
                <time>2004-12-12T04:24:29Z</time>
            </trkpt>
            <trkpt lon="101.347482" lat="14.610980">
                <ele>460.128174</ele>
                <time>2004-12-12T04:24:34Z</time>
            </trkpt>
            <trkpt lon="101.346796" lat="14.610808">
                <ele>454.360229</ele>
                <time>2004-12-12T04:24:48Z</time>
            </trkpt>
            <trkpt lon="101.345615" lat="14.610593">
                <ele>448.111816</ele>
                <time>2004-12-12T04:25:03Z</time>
            </trkpt>
            <trkpt lon="101.343706" lat="14.610186">
                <ele>442.343872</ele>
                <time>2004-12-12T04:25:24Z</time>
            </trkpt>
            <trkpt lon="101.342075" lat="14.609864">
                <ele>438.979126</ele>
                <time>2004-12-12T04:25:43Z</time>
            </trkpt>
            <trkpt lon="101.340959" lat="14.609649">
                <ele>436.095215</ele>
                <time>2004-12-12T04:25:58Z</time>
            </trkpt>
            <trkpt lon="101.340787" lat="14.609799">
                <ele>434.653320</ele>
                <time>2004-12-12T04:26:04Z</time>
            </trkpt>
            <trkpt lon="101.340594" lat="14.610722">
                <ele>431.288574</ele>
                <time>2004-12-12T04:26:22Z</time>
            </trkpt>
            <trkpt lon="101.340444" lat="14.611323">
                <ele>428.404663</ele>
                <time>2004-12-12T04:26:33Z</time>
            </trkpt>
            <trkpt lon="101.340187" lat="14.612095">
                <ele>425.520752</ele>
                <time>2004-12-12T04:26:47Z</time>
            </trkpt>
            <trkpt lon="101.340079" lat="14.612310">
                <ele>424.559448</ele>
                <time>2004-12-12T04:26:51Z</time>
            </trkpt>
            <trkpt lon="101.339865" lat="14.612396">
                <ele>425.520752</ele>
                <time>2004-12-12T04:26:55Z</time>
            </trkpt>
            <trkpt lon="101.339693" lat="14.612417">
                <ele>426.001343</ele>
                <time>2004-12-12T04:26:58Z</time>
            </trkpt>
            <trkpt lon="101.339521" lat="14.612439">
                <ele>425.520752</ele>
                <time>2004-12-12T04:27:01Z</time>
            </trkpt>
            <trkpt lon="101.338792" lat="14.612439">
                <ele>423.598022</ele>
                <time>2004-12-12T04:27:14Z</time>
            </trkpt>
            <trkpt lon="101.337848" lat="14.612546">
                <ele>424.078735</ele>
                <time>2004-12-12T04:27:32Z</time>
            </trkpt>
            <trkpt lon="101.336989" lat="14.612675">
                <ele>421.194824</ele>
                <time>2004-12-12T04:27:49Z</time>
            </trkpt>
            <trkpt lon="101.337054" lat="14.612803">
                <ele>421.194824</ele>
                <time>2004-12-12T04:27:53Z</time>
            </trkpt>
            <trkpt lon="101.337247" lat="14.613211">
                <ele>420.233398</ele>
                <time>2004-12-12T04:28:05Z</time>
            </trkpt>
            <trkpt lon="101.337397" lat="14.613919">
                <ele>422.636719</ele>
                <time>2004-12-12T04:28:23Z</time>
            </trkpt>
            <trkpt lon="101.337483" lat="14.614520">
                <ele>420.714111</ele>
                <time>2004-12-12T04:28:38Z</time>
            </trkpt>
            <trkpt lon="101.337440" lat="14.615142">
                <ele>420.714111</ele>
                <time>2004-12-12T04:28:54Z</time>
            </trkpt>
            <trkpt lon="101.337161" lat="14.615765">
                <ele>422.636719</ele>
                <time>2004-12-12T04:29:12Z</time>
            </trkpt>
            <trkpt lon="101.336839" lat="14.616601">
                <ele>421.194824</ele>
                <time>2004-12-12T04:29:37Z</time>
            </trkpt>
            <trkpt lon="101.336818" lat="14.616644">
                <ele>421.194824</ele>
                <time>2004-12-12T04:29:39Z</time>
            </trkpt>
            <trkpt lon="101.336389" lat="14.616559">
                <ele>421.194824</ele>
                <time>2004-12-12T04:29:51Z</time>
            </trkpt>
            <trkpt lon="101.335745" lat="14.616323">
                <ele>420.714111</ele>
                <time>2004-12-12T04:30:09Z</time>
            </trkpt>
            <trkpt lon="101.334994" lat="14.616022">
                <ele>418.791504</ele>
                <time>2004-12-12T04:30:28Z</time>
            </trkpt>
            <trkpt lon="101.334264" lat="14.615700">
                <ele>415.426880</ele>
                <time>2004-12-12T04:30:47Z</time>
            </trkpt>
            <trkpt lon="101.334114" lat="14.615614">
                <ele>414.946167</ele>
                <time>2004-12-12T04:30:52Z</time>
            </trkpt>
            <trkpt lon="101.334157" lat="14.615486">
                <ele>413.984863</ele>
                <time>2004-12-12T04:30:56Z</time>
            </trkpt>
            <trkpt lon="101.334736" lat="14.614863">
                <ele>414.465454</ele>
                <time>2004-12-12T04:31:19Z</time>
            </trkpt>
            <trkpt lon="101.335037" lat="14.614520">
                <ele>417.349609</ele>
                <time>2004-12-12T04:31:36Z</time>
            </trkpt>
            <trkpt lon="101.335080" lat="14.614220">
                <ele>416.868896</ele>
                <time>2004-12-12T04:31:49Z</time>
            </trkpt>
            <trkpt lon="101.335123" lat="14.613726">
                <ele>416.868896</ele>
                <time>2004-12-12T04:32:06Z</time>
            </trkpt>
            <trkpt lon="101.335294" lat="14.613361">
                <ele>417.349609</ele>
                <time>2004-12-12T04:32:20Z</time>
            </trkpt>
            <trkpt lon="101.335444" lat="14.613147">
                <ele>416.868896</ele>
                <time>2004-12-12T04:32:32Z</time>
            </trkpt>
            <trkpt lon="101.335745" lat="14.612718">
                <ele>418.310791</ele>
                <time>2004-12-12T04:32:51Z</time>
            </trkpt>
            <trkpt lon="101.335938" lat="14.612417">
                <ele>418.791504</ele>
                <time>2004-12-12T04:33:04Z</time>
            </trkpt>
            <trkpt lon="101.336474" lat="14.612503">
                <ele>420.714111</ele>
                <time>2004-12-12T04:33:21Z</time>
            </trkpt>
            <trkpt lon="101.336818" lat="14.612567">
                <ele>420.233398</ele>
                <time>2004-12-12T04:33:36Z</time>
            </trkpt>
            <trkpt lon="101.336818" lat="14.612567">
                <ele>422.636719</ele>
                <time>2004-12-12T04:34:00Z</time>
            </trkpt>
            <trkpt lon="101.336432" lat="14.612482">
                <ele>422.156006</ele>
                <time>2004-12-12T04:34:13Z</time>
            </trkpt>
            <trkpt lon="101.335938" lat="14.612439">
                <ele>422.156006</ele>
                <time>2004-12-12T04:34:27Z</time>
            </trkpt>
            <trkpt lon="101.335638" lat="14.612846">
                <ele>419.752808</ele>
                <time>2004-12-12T04:34:42Z</time>
            </trkpt>
            <trkpt lon="101.335402" lat="14.613168">
                <ele>418.310791</ele>
                <time>2004-12-12T04:34:53Z</time>
            </trkpt>
            <trkpt lon="101.335230" lat="14.613469">
                <ele>417.349609</ele>
                <time>2004-12-12T04:35:04Z</time>
            </trkpt>
            <trkpt lon="101.335123" lat="14.613469">
                <ele>416.868896</ele>
                <time>2004-12-12T04:35:09Z</time>
            </trkpt>
            <trkpt lon="101.334736" lat="14.613233">
                <ele>415.907471</ele>
                <time>2004-12-12T04:35:23Z</time>
            </trkpt>
            <trkpt lon="101.334200" lat="14.612911">
                <ele>416.868896</ele>
                <time>2004-12-12T04:35:41Z</time>
            </trkpt>
            <trkpt lon="101.333749" lat="14.612632">
                <ele>416.388184</ele>
                <time>2004-12-12T04:35:57Z</time>
            </trkpt>
            <trkpt lon="101.333535" lat="14.612503">
                <ele>417.349609</ele>
                <time>2004-12-12T04:36:08Z</time>
            </trkpt>
            <trkpt lon="101.333449" lat="14.612482">
                <ele>417.349609</ele>
                <time>2004-12-12T04:36:13Z</time>
            </trkpt>
            <trkpt lon="101.333148" lat="14.612331">
                <ele>417.830200</ele>
                <time>2004-12-12T04:36:30Z</time>
            </trkpt>
            <trkpt lon="101.333041" lat="14.612138">
                <ele>418.310791</ele>
                <time>2004-12-12T04:36:45Z</time>
            </trkpt>
            <trkpt lon="101.333041" lat="14.612117">
                <ele>420.233398</ele>
                <time>2004-12-12T04:36:52Z</time>
            </trkpt>
            <trkpt lon="101.332977" lat="14.612074">
                <ele>419.752808</ele>
                <time>2004-12-12T04:37:01Z</time>
            </trkpt>
            <trkpt lon="101.332934" lat="14.612010">
                <ele>418.791504</ele>
                <time>2004-12-12T04:37:05Z</time>
            </trkpt>
            <trkpt lon="101.332526" lat="14.611773">
                <ele>418.791504</ele>
                <time>2004-12-12T04:37:23Z</time>
            </trkpt>
            <trkpt lon="101.332462" lat="14.611731">
                <ele>418.310791</ele>
                <time>2004-12-12T04:37:33Z</time>
            </trkpt>
            <trkpt lon="101.332355" lat="14.611559">
                <ele>421.194824</ele>
                <time>2004-12-12T04:37:53Z</time>
            </trkpt>
            <trkpt lon="101.332333" lat="14.611495">
                <ele>422.156006</ele>
                <time>2004-12-12T04:38:00Z</time>
            </trkpt>
            <trkpt lon="101.332140" lat="14.611495">
                <ele>423.117432</ele>
                <time>2004-12-12T04:38:13Z</time>
            </trkpt>
            <trkpt lon="101.331754" lat="14.611559">
                <ele>420.714111</ele>
                <time>2004-12-12T04:38:25Z</time>
            </trkpt>
            <trkpt lon="101.331496" lat="14.611516">
                <ele>420.233398</ele>
                <time>2004-12-12T04:38:34Z</time>
            </trkpt>
            <trkpt lon="101.330938" lat="14.611387">
                <ele>419.272217</ele>
                <time>2004-12-12T04:38:53Z</time>
            </trkpt>
            <trkpt lon="101.330380" lat="14.611323">
                <ele>420.233398</ele>
                <time>2004-12-12T04:39:10Z</time>
            </trkpt>
            <trkpt lon="101.329865" lat="14.611280">
                <ele>420.233398</ele>
                <time>2004-12-12T04:39:23Z</time>
            </trkpt>
            <trkpt lon="101.329243" lat="14.611216">
                <ele>419.752808</ele>
                <time>2004-12-12T04:39:39Z</time>
            </trkpt>
            <trkpt lon="101.329136" lat="14.611173">
                <ele>419.272217</ele>
                <time>2004-12-12T04:39:49Z</time>
            </trkpt>
            <trkpt lon="101.329114" lat="14.611173">
                <ele>418.791504</ele>
                <time>2004-12-12T04:40:04Z</time>
            </trkpt>
            <trkpt lon="101.329114" lat="14.611173">
                <ele>417.830200</ele>
                <time>2004-12-12T04:40:45Z</time>
            </trkpt>
            <trkpt lon="101.329114" lat="14.611130">
                <ele>416.868896</ele>
                <time>2004-12-12T04:41:12Z</time>
            </trkpt>
            <trkpt lon="101.329136" lat="14.611044">
                <ele>416.868896</ele>
                <time>2004-12-12T04:41:17Z</time>
            </trkpt>
            <trkpt lon="101.329222" lat="14.610465">
                <ele>418.791504</ele>
                <time>2004-12-12T04:41:35Z</time>
            </trkpt>
            <trkpt lon="101.329200" lat="14.610379">
                <ele>418.310791</ele>
                <time>2004-12-12T04:41:38Z</time>
            </trkpt>
            <trkpt lon="101.329136" lat="14.610357">
                <ele>418.791504</ele>
                <time>2004-12-12T04:41:42Z</time>
            </trkpt>
            <trkpt lon="101.328578" lat="14.610379">
                <ele>419.272217</ele>
                <time>2004-12-12T04:41:59Z</time>
            </trkpt>
            <trkpt lon="101.327934" lat="14.610379">
                <ele>419.272217</ele>
                <time>2004-12-12T04:42:17Z</time>
            </trkpt>
            <trkpt lon="101.327355" lat="14.610400">
                <ele>418.791504</ele>
                <time>2004-12-12T04:42:35Z</time>
            </trkpt>
            <trkpt lon="101.327248" lat="14.610400">
                <ele>419.272217</ele>
                <time>2004-12-12T04:42:46Z</time>
            </trkpt>
            <trkpt lon="101.326733" lat="14.610422">
                <ele>418.791504</ele>
                <time>2004-12-12T04:43:02Z</time>
            </trkpt>
            <trkpt lon="101.326625" lat="14.610400">
                <ele>418.791504</ele>
                <time>2004-12-12T04:43:05Z</time>
            </trkpt>
            <trkpt lon="101.326625" lat="14.610422">
                <ele>418.310791</ele>
                <time>2004-12-12T04:43:10Z</time>
            </trkpt>
            <trkpt lon="101.327012" lat="14.610422">
                <ele>418.791504</ele>
                <time>2004-12-12T04:43:24Z</time>
            </trkpt>
            <trkpt lon="101.327741" lat="14.610400">
                <ele>419.272217</ele>
                <time>2004-12-12T04:43:43Z</time>
            </trkpt>
            <trkpt lon="101.328492" lat="14.610400">
                <ele>420.233398</ele>
                <time>2004-12-12T04:44:01Z</time>
            </trkpt>
            <trkpt lon="101.329072" lat="14.610379">
                <ele>420.714111</ele>
                <time>2004-12-12T04:44:16Z</time>
            </trkpt>
            <trkpt lon="101.329243" lat="14.610143">
                <ele>421.194824</ele>
                <time>2004-12-12T04:44:25Z</time>
            </trkpt>
            <trkpt lon="101.329372" lat="14.609606">
                <ele>422.156006</ele>
                <time>2004-12-12T04:44:40Z</time>
            </trkpt>
            <trkpt lon="101.329415" lat="14.609478">
                <ele>422.156006</ele>
                <time>2004-12-12T04:44:44Z</time>
            </trkpt>
            <trkpt lon="101.329930" lat="14.609263">
                <ele>422.636719</ele>
                <time>2004-12-12T04:45:00Z</time>
            </trkpt>
            <trkpt lon="101.330423" lat="14.609156">
                <ele>423.598022</ele>
                <time>2004-12-12T04:45:17Z</time>
            </trkpt>
            <trkpt lon="101.330938" lat="14.609027">
                <ele>421.675415</ele>
                <time>2004-12-12T04:45:35Z</time>
            </trkpt>
            <trkpt lon="101.331367" lat="14.608920">
                <ele>422.156006</ele>
                <time>2004-12-12T04:45:51Z</time>
            </trkpt>
            <trkpt lon="101.331882" lat="14.608877">
                <ele>422.636719</ele>
                <time>2004-12-12T04:46:10Z</time>
            </trkpt>
            <trkpt lon="101.332419" lat="14.608855">
                <ele>422.156006</ele>
                <time>2004-12-12T04:46:28Z</time>
            </trkpt>
            <trkpt lon="101.332955" lat="14.608855">
                <ele>422.156006</ele>
                <time>2004-12-12T04:46:44Z</time>
            </trkpt>
            <trkpt lon="101.333492" lat="14.608855">
                <ele>421.194824</ele>
                <time>2004-12-12T04:47:01Z</time>
            </trkpt>
            <trkpt lon="101.334307" lat="14.608769">
                <ele>422.636719</ele>
                <time>2004-12-12T04:47:23Z</time>
            </trkpt>
            <trkpt lon="101.335058" lat="14.608727">
                <ele>424.559448</ele>
                <time>2004-12-12T04:47:43Z</time>
            </trkpt>
            <trkpt lon="101.335745" lat="14.608705">
                <ele>427.443359</ele>
                <time>2004-12-12T04:48:04Z</time>
            </trkpt>
            <trkpt lon="101.336217" lat="14.608619">
                <ele>427.443359</ele>
                <time>2004-12-12T04:48:20Z</time>
            </trkpt>
            <trkpt lon="101.336775" lat="14.608426">
                <ele>428.404663</ele>
                <time>2004-12-12T04:48:39Z</time>
            </trkpt>
            <trkpt lon="101.337440" lat="14.608254">
                <ele>429.846558</ele>
                <time>2004-12-12T04:49:00Z</time>
            </trkpt>
            <trkpt lon="101.337955" lat="14.608212">
                <ele>430.327271</ele>
                <time>2004-12-12T04:49:17Z</time>
            </trkpt>
            <trkpt lon="101.338470" lat="14.608233">
                <ele>432.730713</ele>
                <time>2004-12-12T04:49:34Z</time>
            </trkpt>
            <trkpt lon="101.338449" lat="14.608083">
                <ele>431.769165</ele>
                <time>2004-12-12T04:49:41Z</time>
            </trkpt>
            <trkpt lon="101.338084" lat="14.607353">
                <ele>429.365967</ele>
                <time>2004-12-12T04:50:01Z</time>
            </trkpt>
            <trkpt lon="101.338105" lat="14.607267">
                <ele>428.885376</ele>
                <time>2004-12-12T04:50:10Z</time>
            </trkpt>
            <trkpt lon="101.338084" lat="14.607267">
                <ele>427.923950</ele>
                <time>2004-12-12T04:50:46Z</time>
            </trkpt>
            <trkpt lon="101.338084" lat="14.607267">
                <ele>428.404663</ele>
                <time>2004-12-12T05:07:50Z</time>
            </trkpt>
            <trkpt lon="101.337998" lat="14.607203">
                <ele>433.211304</ele>
                <time>2004-12-12T05:12:12Z</time>
            </trkpt>
            <trkpt lon="101.337934" lat="14.606688">
                <ele>429.846558</ele>
                <time>2004-12-12T05:12:27Z</time>
            </trkpt>
            <trkpt lon="101.337826" lat="14.605916">
                <ele>427.443359</ele>
                <time>2004-12-12T05:12:46Z</time>
            </trkpt>
            <trkpt lon="101.337805" lat="14.605529">
                <ele>428.404663</ele>
                <time>2004-12-12T05:12:54Z</time>
            </trkpt>
            <trkpt lon="101.337976" lat="14.604993">
                <ele>427.923950</ele>
                <time>2004-12-12T05:13:07Z</time>
            </trkpt>
            <trkpt lon="101.337998" lat="14.604435">
                <ele>429.365967</ele>
                <time>2004-12-12T05:13:22Z</time>
            </trkpt>
            <trkpt lon="101.337590" lat="14.603577">
                <ele>429.846558</ele>
                <time>2004-12-12T05:13:44Z</time>
            </trkpt>
            <trkpt lon="101.337419" lat="14.602783">
                <ele>431.288574</ele>
                <time>2004-12-12T05:14:03Z</time>
            </trkpt>
            <trkpt lon="101.337354" lat="14.602053">
                <ele>431.288574</ele>
                <time>2004-12-12T05:14:22Z</time>
            </trkpt>
            <trkpt lon="101.337333" lat="14.601238">
                <ele>432.730713</ele>
                <time>2004-12-12T05:14:43Z</time>
            </trkpt>
            <trkpt lon="101.337311" lat="14.600422">
                <ele>433.691895</ele>
                <time>2004-12-12T05:15:07Z</time>
            </trkpt>
            <trkpt lon="101.337268" lat="14.599757">
                <ele>435.133911</ele>
                <time>2004-12-12T05:15:28Z</time>
            </trkpt>
            <trkpt lon="101.337268" lat="14.599221">
                <ele>436.575928</ele>
                <time>2004-12-12T05:15:48Z</time>
            </trkpt>
            <trkpt lon="101.337311" lat="14.599049">
                <ele>435.614502</ele>
                <time>2004-12-12T05:15:59Z</time>
            </trkpt>
            <trkpt lon="101.337247" lat="14.598985">
                <ele>436.575928</ele>
                <time>2004-12-12T05:16:07Z</time>
            </trkpt>
            <trkpt lon="101.337225" lat="14.598920">
                <ele>437.056519</ele>
                <time>2004-12-12T05:16:20Z</time>
            </trkpt>
            <trkpt lon="101.337225" lat="14.598770">
                <ele>439.459717</ele>
                <time>2004-12-12T05:17:03Z</time>
            </trkpt>
            <trkpt lon="101.337204" lat="14.598277">
                <ele>438.979126</ele>
                <time>2004-12-12T05:17:19Z</time>
            </trkpt>
            <trkpt lon="101.337204" lat="14.597890">
                <ele>441.863159</ele>
                <time>2004-12-12T05:17:35Z</time>
            </trkpt>
            <trkpt lon="101.337204" lat="14.597440">
                <ele>443.785767</ele>
                <time>2004-12-12T05:17:57Z</time>
            </trkpt>
            <trkpt lon="101.337225" lat="14.597397">
                <ele>443.785767</ele>
                <time>2004-12-12T05:17:59Z</time>
            </trkpt>
            <trkpt lon="101.337290" lat="14.597375">
                <ele>443.785767</ele>
                <time>2004-12-12T05:18:03Z</time>
            </trkpt>
            <trkpt lon="101.337719" lat="14.597375">
                <ele>446.189087</ele>
                <time>2004-12-12T05:18:22Z</time>
            </trkpt>
            <trkpt lon="101.338041" lat="14.597397">
                <ele>447.630981</ele>
                <time>2004-12-12T05:18:38Z</time>
            </trkpt>
            <trkpt lon="101.338298" lat="14.597418">
                <ele>449.072998</ele>
                <time>2004-12-12T05:18:52Z</time>
            </trkpt>
            <trkpt lon="101.338534" lat="14.597440">
                <ele>452.437622</ele>
                <time>2004-12-12T05:19:08Z</time>
            </trkpt>
            <trkpt lon="101.338749" lat="14.597440">
                <ele>454.840820</ele>
                <time>2004-12-12T05:19:24Z</time>
            </trkpt>
            <trkpt lon="101.338964" lat="14.597418">
                <ele>458.205566</ele>
                <time>2004-12-12T05:19:43Z</time>
            </trkpt>
            <trkpt lon="101.339114" lat="14.597397">
                <ele>458.686157</ele>
                <time>2004-12-12T05:19:59Z</time>
            </trkpt>
            <trkpt lon="101.339114" lat="14.597397">
                <ele>458.686157</ele>
                <time>2004-12-12T05:20:01Z</time>
            </trkpt>
            <trkpt lon="101.339307" lat="14.597332">
                <ele>462.050781</ele>
                <time>2004-12-12T05:20:20Z</time>
            </trkpt>
            <trkpt lon="101.339414" lat="14.597161">
                <ele>460.608765</ele>
                <time>2004-12-12T05:20:39Z</time>
            </trkpt>
            <trkpt lon="101.339436" lat="14.597139">
                <ele>461.089478</ele>
                <time>2004-12-12T05:20:43Z</time>
            </trkpt>
            <trkpt lon="101.339521" lat="14.596925">
                <ele>468.780029</ele>
                <time>2004-12-12T05:21:06Z</time>
            </trkpt>
            <trkpt lon="101.339543" lat="14.596903">
                <ele>469.741333</ele>
                <time>2004-12-12T05:21:09Z</time>
            </trkpt>
            <trkpt lon="101.339672" lat="14.596689">
                <ele>475.028687</ele>
                <time>2004-12-12T05:21:35Z</time>
            </trkpt>
            <trkpt lon="101.339672" lat="14.596689">
                <ele>474.547974</ele>
                <time>2004-12-12T05:21:37Z</time>
            </trkpt>
            <trkpt lon="101.339757" lat="14.596496">
                <ele>478.873901</ele>
                <time>2004-12-12T05:21:57Z</time>
            </trkpt>
            <trkpt lon="101.339865" lat="14.596303">
                <ele>483.680420</ele>
                <time>2004-12-12T05:22:18Z</time>
            </trkpt>
            <trkpt lon="101.339929" lat="14.596217">
                <ele>484.641846</ele>
                <time>2004-12-12T05:22:29Z</time>
            </trkpt>
            <trkpt lon="101.339951" lat="14.596217">
                <ele>484.641846</ele>
                <time>2004-12-12T05:22:32Z</time>
            </trkpt>
            <trkpt lon="101.340315" lat="14.596174">
                <ele>484.161133</ele>
                <time>2004-12-12T05:22:50Z</time>
            </trkpt>
            <trkpt lon="101.340852" lat="14.596131">
                <ele>481.757812</ele>
                <time>2004-12-12T05:23:04Z</time>
            </trkpt>
            <trkpt lon="101.341753" lat="14.596045">
                <ele>477.431885</ele>
                <time>2004-12-12T05:23:22Z</time>
            </trkpt>
            <trkpt lon="101.341946" lat="14.596045">
                <ele>475.989868</ele>
                <time>2004-12-12T05:23:27Z</time>
            </trkpt>
            <trkpt lon="101.341968" lat="14.595873">
                <ele>475.028687</ele>
                <time>2004-12-12T05:23:35Z</time>
            </trkpt>
            <trkpt lon="101.341538" lat="14.595423">
                <ele>469.741333</ele>
                <time>2004-12-12T05:23:50Z</time>
            </trkpt>
            <trkpt lon="101.340873" lat="14.594843">
                <ele>466.376709</ele>
                <time>2004-12-12T05:24:07Z</time>
            </trkpt>
            <trkpt lon="101.340144" lat="14.594221">
                <ele>467.818726</ele>
                <time>2004-12-12T05:24:30Z</time>
            </trkpt>
            <trkpt lon="101.339972" lat="14.593985">
                <ele>465.896118</ele>
                <time>2004-12-12T05:24:44Z</time>
            </trkpt>
            <trkpt lon="101.340015" lat="14.594028">
                <ele>464.454102</ele>
                <time>2004-12-12T05:25:22Z</time>
            </trkpt>
            <trkpt lon="101.340058" lat="14.594071">
                <ele>464.454102</ele>
                <time>2004-12-12T05:25:34Z</time>
            </trkpt>
            <trkpt lon="101.340294" lat="14.594328">
                <ele>466.376709</ele>
                <time>2004-12-12T05:25:51Z</time>
            </trkpt>
            <trkpt lon="101.340702" lat="14.594693">
                <ele>467.338135</ele>
                <time>2004-12-12T05:26:08Z</time>
            </trkpt>
            <trkpt lon="101.341131" lat="14.595058">
                <ele>466.857422</ele>
                <time>2004-12-12T05:26:26Z</time>
            </trkpt>
            <trkpt lon="101.341517" lat="14.595380">
                <ele>467.818726</ele>
                <time>2004-12-12T05:26:45Z</time>
            </trkpt>
            <trkpt lon="101.341753" lat="14.595573">
                <ele>470.702637</ele>
                <time>2004-12-12T05:27:01Z</time>
            </trkpt>
            <trkpt lon="101.341774" lat="14.595551">
                <ele>472.144653</ele>
                <time>2004-12-12T05:27:13Z</time>
            </trkpt>
            <trkpt lon="101.341817" lat="14.595509">
                <ele>471.663940</ele>
                <time>2004-12-12T05:27:23Z</time>
            </trkpt>
            <trkpt lon="101.342096" lat="14.595273">
                <ele>465.896118</ele>
                <time>2004-12-12T05:27:36Z</time>
            </trkpt>
            <trkpt lon="101.342397" lat="14.594994">
                <ele>460.128174</ele>
                <time>2004-12-12T05:27:46Z</time>
            </trkpt>
            <trkpt lon="101.342869" lat="14.594350">
                <ele>455.321533</ele>
                <time>2004-12-12T05:28:03Z</time>
            </trkpt>
            <trkpt lon="101.343513" lat="14.593856">
                <ele>453.398926</ele>
                <time>2004-12-12T05:28:19Z</time>
            </trkpt>
            <trkpt lon="101.343641" lat="14.593771">
                <ele>452.918213</ele>
                <time>2004-12-12T05:28:22Z</time>
            </trkpt>
            <trkpt lon="101.344478" lat="14.593363">
                <ele>449.072998</ele>
                <time>2004-12-12T05:28:42Z</time>
            </trkpt>
            <trkpt lon="101.344521" lat="14.593384">
                <ele>448.592407</ele>
                <time>2004-12-12T05:28:47Z</time>
            </trkpt>
            <trkpt lon="101.344585" lat="14.593663">
                <ele>446.189087</ele>
                <time>2004-12-12T05:29:01Z</time>
            </trkpt>
            <trkpt lon="101.344800" lat="14.594414">
                <ele>446.189087</ele>
                <time>2004-12-12T05:29:23Z</time>
            </trkpt>
            <trkpt lon="101.344950" lat="14.594908">
                <ele>445.708374</ele>
                <time>2004-12-12T05:29:40Z</time>
            </trkpt>
            <trkpt lon="101.344972" lat="14.594886">
                <ele>445.227661</ele>
                <time>2004-12-12T05:29:44Z</time>
            </trkpt>
            <trkpt lon="101.344864" lat="14.594543">
                <ele>446.189087</ele>
                <time>2004-12-12T05:29:59Z</time>
            </trkpt>
            <trkpt lon="101.344736" lat="14.594114">
                <ele>446.669678</ele>
                <time>2004-12-12T05:30:11Z</time>
            </trkpt>
            <trkpt lon="101.344714" lat="14.594092">
                <ele>446.669678</ele>
                <time>2004-12-12T05:30:13Z</time>
            </trkpt>
            <trkpt lon="101.344693" lat="14.594157">
                <ele>447.630981</ele>
                <time>2004-12-12T05:30:18Z</time>
            </trkpt>
            <trkpt lon="101.344821" lat="14.594650">
                <ele>447.150269</ele>
                <time>2004-12-12T05:30:31Z</time>
            </trkpt>
            <trkpt lon="101.345100" lat="14.595594">
                <ele>446.669678</ele>
                <time>2004-12-12T05:30:51Z</time>
            </trkpt>
            <trkpt lon="101.345422" lat="14.596689">
                <ele>446.189087</ele>
                <time>2004-12-12T05:31:11Z</time>
            </trkpt>
            <trkpt lon="101.345809" lat="14.597912">
                <ele>444.266479</ele>
                <time>2004-12-12T05:31:33Z</time>
            </trkpt>
            <trkpt lon="101.345873" lat="14.598062">
                <ele>443.305054</ele>
                <time>2004-12-12T05:31:36Z</time>
            </trkpt>
            <trkpt lon="101.346087" lat="14.598083">
                <ele>442.824463</ele>
                <time>2004-12-12T05:31:42Z</time>
            </trkpt>
            <trkpt lon="101.346753" lat="14.597719">
                <ele>443.785767</ele>
                <time>2004-12-12T05:32:02Z</time>
            </trkpt>
            <trkpt lon="101.347096" lat="14.597139">
                <ele>444.747070</ele>
                <time>2004-12-12T05:32:21Z</time>
            </trkpt>
            <trkpt lon="101.347568" lat="14.596581">
                <ele>445.227661</ele>
                <time>2004-12-12T05:32:42Z</time>
            </trkpt>
            <trkpt lon="101.348233" lat="14.596217">
                <ele>445.708374</ele>
                <time>2004-12-12T05:33:03Z</time>
            </trkpt>
            <trkpt lon="101.348705" lat="14.595788">
                <ele>447.150269</ele>
                <time>2004-12-12T05:33:23Z</time>
            </trkpt>
            <trkpt lon="101.348963" lat="14.595788">
                <ele>447.630981</ele>
                <time>2004-12-12T05:33:36Z</time>
            </trkpt>
            <trkpt lon="101.348941" lat="14.595745">
                <ele>446.669678</ele>
                <time>2004-12-12T05:34:06Z</time>
            </trkpt>
            <trkpt lon="101.348920" lat="14.595745">
                <ele>451.476318</ele>
                <time>2004-12-12T05:35:50Z</time>
            </trkpt>
            <trkpt lon="101.348963" lat="14.595723">
                <ele>450.515015</ele>
                <time>2004-12-12T05:36:09Z</time>
            </trkpt>
            <trkpt lon="101.348963" lat="14.595745">
                <ele>450.995605</ele>
                <time>2004-12-12T05:36:13Z</time>
            </trkpt>
            <trkpt lon="101.349328" lat="14.595766">
                <ele>450.034424</ele>
                <time>2004-12-12T05:36:25Z</time>
            </trkpt>
            <trkpt lon="101.350358" lat="14.595766">
                <ele>453.398926</ele>
                <time>2004-12-12T05:36:50Z</time>
            </trkpt>
            <trkpt lon="101.351109" lat="14.595723">
                <ele>454.840820</ele>
                <time>2004-12-12T05:37:10Z</time>
            </trkpt>
            <trkpt lon="101.351709" lat="14.595423">
                <ele>452.437622</ele>
                <time>2004-12-12T05:37:28Z</time>
            </trkpt>
            <trkpt lon="101.352417" lat="14.594994">
                <ele>454.360229</ele>
                <time>2004-12-12T05:37:48Z</time>
            </trkpt>
            <trkpt lon="101.353018" lat="14.594629">
                <ele>455.802246</ele>
                <time>2004-12-12T05:38:07Z</time>
            </trkpt>
            <trkpt lon="101.353362" lat="14.594200">
                <ele>455.802246</ele>
                <time>2004-12-12T05:38:29Z</time>
            </trkpt>
            <trkpt lon="101.354177" lat="14.593985">
                <ele>459.166870</ele>
                <time>2004-12-12T05:38:52Z</time>
            </trkpt>
            <trkpt lon="101.354799" lat="14.593964">
                <ele>463.012085</ele>
                <time>2004-12-12T05:39:11Z</time>
            </trkpt>
            <trkpt lon="101.354821" lat="14.593942">
                <ele>463.012085</ele>
                <time>2004-12-12T05:39:12Z</time>
            </trkpt>
            <trkpt lon="101.354864" lat="14.593706">
                <ele>464.934814</ele>
                <time>2004-12-12T05:39:26Z</time>
            </trkpt>
            <trkpt lon="101.354692" lat="14.593427">
                <ele>464.934814</ele>
                <time>2004-12-12T05:39:38Z</time>
            </trkpt>
            <trkpt lon="101.354713" lat="14.593363">
                <ele>465.415527</ele>
                <time>2004-12-12T05:39:43Z</time>
            </trkpt>
            <trkpt lon="101.355057" lat="14.593170">
                <ele>469.260742</ele>
                <time>2004-12-12T05:40:02Z</time>
            </trkpt>
            <trkpt lon="101.355314" lat="14.593062">
                <ele>473.586670</ele>
                <time>2004-12-12T05:40:19Z</time>
            </trkpt>
            <trkpt lon="101.355636" lat="14.592912">
                <ele>477.431885</ele>
                <time>2004-12-12T05:40:39Z</time>
            </trkpt>
            <trkpt lon="101.355937" lat="14.592783">
                <ele>481.277222</ele>
                <time>2004-12-12T05:41:00Z</time>
            </trkpt>
            <trkpt lon="101.356215" lat="14.592676">
                <ele>483.199829</ele>
                <time>2004-12-12T05:41:17Z</time>
            </trkpt>
            <trkpt lon="101.356494" lat="14.592547">
                <ele>486.083740</ele>
                <time>2004-12-12T05:41:37Z</time>
            </trkpt>
            <trkpt lon="101.356773" lat="14.592440">
                <ele>488.487183</ele>
                <time>2004-12-12T05:41:56Z</time>
            </trkpt>
            <trkpt lon="101.357009" lat="14.592397">
                <ele>489.448364</ele>
                <time>2004-12-12T05:42:11Z</time>
            </trkpt>
            <trkpt lon="101.357331" lat="14.592333">
                <ele>490.890381</ele>
                <time>2004-12-12T05:42:27Z</time>
            </trkpt>
            <trkpt lon="101.358039" lat="14.592204">
                <ele>490.409790</ele>
                <time>2004-12-12T05:42:46Z</time>
            </trkpt>
            <trkpt lon="101.359005" lat="14.592075">
                <ele>488.487183</ele>
                <time>2004-12-12T05:43:07Z</time>
            </trkpt>
            <trkpt lon="101.359262" lat="14.592032">
                <ele>487.525635</ele>
                <time>2004-12-12T05:43:17Z</time>
            </trkpt>
            <trkpt lon="101.359928" lat="14.592419">
                <ele>486.564453</ele>
                <time>2004-12-12T05:43:37Z</time>
            </trkpt>
            <trkpt lon="101.360657" lat="14.592505">
                <ele>481.757812</ele>
                <time>2004-12-12T05:43:51Z</time>
            </trkpt>
            <trkpt lon="101.361108" lat="14.592505">
                <ele>477.912476</ele>
                <time>2004-12-12T05:43:58Z</time>
            </trkpt>
            <trkpt lon="101.362031" lat="14.592440">
                <ele>470.221924</ele>
                <time>2004-12-12T05:44:10Z</time>
            </trkpt>
            <trkpt lon="101.362782" lat="14.592161">
                <ele>467.818726</ele>
                <time>2004-12-12T05:44:24Z</time>
            </trkpt>
            <trkpt lon="101.363833" lat="14.591775">
                <ele>462.050781</ele>
                <time>2004-12-12T05:44:42Z</time>
            </trkpt>
            <trkpt lon="101.364133" lat="14.591646">
                <ele>460.608765</ele>
                <time>2004-12-12T05:44:47Z</time>
            </trkpt>
            <trkpt lon="101.364498" lat="14.591732">
                <ele>458.205566</ele>
                <time>2004-12-12T05:44:54Z</time>
            </trkpt>
            <trkpt lon="101.364713" lat="14.591904">
                <ele>456.763550</ele>
                <time>2004-12-12T05:44:59Z</time>
            </trkpt>
            <trkpt lon="101.364884" lat="14.592097">
                <ele>456.282959</ele>
                <time>2004-12-12T05:45:04Z</time>
            </trkpt>
            <trkpt lon="101.365206" lat="14.592869">
                <ele>454.840820</ele>
                <time>2004-12-12T05:45:20Z</time>
            </trkpt>
            <trkpt lon="101.365614" lat="14.594071">
                <ele>452.437622</ele>
                <time>2004-12-12T05:45:42Z</time>
            </trkpt>
            <trkpt lon="101.365936" lat="14.595058">
                <ele>450.995605</ele>
                <time>2004-12-12T05:46:00Z</time>
            </trkpt>
            <trkpt lon="101.365979" lat="14.595144">
                <ele>450.995605</ele>
                <time>2004-12-12T05:46:02Z</time>
            </trkpt>
            <trkpt lon="101.366472" lat="14.595809">
                <ele>450.034424</ele>
                <time>2004-12-12T05:46:19Z</time>
            </trkpt>
            <trkpt lon="101.366580" lat="14.595895">
                <ele>450.515015</ele>
                <time>2004-12-12T05:46:22Z</time>
            </trkpt>
            <trkpt lon="101.367481" lat="14.596281">
                <ele>449.553711</ele>
                <time>2004-12-12T05:46:39Z</time>
            </trkpt>
            <trkpt lon="101.368639" lat="14.596667">
                <ele>447.150269</ele>
                <time>2004-12-12T05:46:58Z</time>
            </trkpt>
            <trkpt lon="101.369605" lat="14.596903">
                <ele>446.669678</ele>
                <time>2004-12-12T05:47:16Z</time>
            </trkpt>
            <trkpt lon="101.370442" lat="14.597096">
                <ele>447.630981</ele>
                <time>2004-12-12T05:47:34Z</time>
            </trkpt>
            <trkpt lon="101.371043" lat="14.597204">
                <ele>447.630981</ele>
                <time>2004-12-12T05:47:50Z</time>
            </trkpt>
            <trkpt lon="101.372073" lat="14.597332">
                <ele>447.150269</ele>
                <time>2004-12-12T05:48:11Z</time>
            </trkpt>
            <trkpt lon="101.373103" lat="14.597418">
                <ele>445.227661</ele>
                <time>2004-12-12T05:48:29Z</time>
            </trkpt>
            <trkpt lon="101.374347" lat="14.597483">
                <ele>442.343872</ele>
                <time>2004-12-12T05:48:48Z</time>
            </trkpt>
            <trkpt lon="101.375506" lat="14.597547">
                <ele>440.421265</ele>
                <time>2004-12-12T05:49:06Z</time>
            </trkpt>
            <trkpt lon="101.375871" lat="14.597590">
                <ele>440.421265</ele>
                <time>2004-12-12T05:49:13Z</time>
            </trkpt>
            <trkpt lon="101.375914" lat="14.597633">
                <ele>440.421265</ele>
                <time>2004-12-12T05:49:15Z</time>
            </trkpt>
            <trkpt lon="101.375892" lat="14.598083">
                <ele>440.421265</ele>
                <time>2004-12-12T05:49:26Z</time>
            </trkpt>
            <trkpt lon="101.375785" lat="14.598620">
                <ele>439.940430</ele>
                <time>2004-12-12T05:49:38Z</time>
            </trkpt>
            <trkpt lon="101.375763" lat="14.598706">
                <ele>439.940430</ele>
                <time>2004-12-12T05:49:40Z</time>
            </trkpt>
            <trkpt lon="101.375678" lat="14.598835">
                <ele>439.940430</ele>
                <time>2004-12-12T05:49:43Z</time>
            </trkpt>
            <trkpt lon="101.375549" lat="14.599028">
                <ele>439.940430</ele>
                <time>2004-12-12T05:49:48Z</time>
            </trkpt>
            <trkpt lon="101.375291" lat="14.599650">
                <ele>438.979126</ele>
                <time>2004-12-12T05:50:05Z</time>
            </trkpt>
            <trkpt lon="101.375120" lat="14.599864">
                <ele>437.537109</ele>
                <time>2004-12-12T05:50:11Z</time>
            </trkpt>
            <trkpt lon="101.374776" lat="14.600251">
                <ele>435.133911</ele>
                <time>2004-12-12T05:50:24Z</time>
            </trkpt>
            <trkpt lon="101.374755" lat="14.600315">
                <ele>434.653320</ele>
                <time>2004-12-12T05:50:26Z</time>
            </trkpt>
            <trkpt lon="101.374519" lat="14.600573">
                <ele>435.614502</ele>
                <time>2004-12-12T05:50:34Z</time>
            </trkpt>
            <trkpt lon="101.374240" lat="14.600787">
                <ele>434.172607</ele>
                <time>2004-12-12T05:50:41Z</time>
            </trkpt>
            <trkpt lon="101.373575" lat="14.601517">
                <ele>432.730713</ele>
                <time>2004-12-12T05:51:01Z</time>
            </trkpt>
            <trkpt lon="101.373210" lat="14.601817">
                <ele>431.769165</ele>
                <time>2004-12-12T05:51:11Z</time>
            </trkpt>
            <trkpt lon="101.373124" lat="14.602010">
                <ele>432.250000</ele>
                <time>2004-12-12T05:51:16Z</time>
            </trkpt>
            <trkpt lon="101.373017" lat="14.602396">
                <ele>433.691895</ele>
                <time>2004-12-12T05:51:31Z</time>
            </trkpt>
            <trkpt lon="101.373017" lat="14.602461">
                <ele>433.691895</ele>
                <time>2004-12-12T05:51:43Z</time>
            </trkpt>
            <trkpt lon="101.372995" lat="14.602439">
                <ele>436.575928</ele>
                <time>2004-12-12T05:51:53Z</time>
            </trkpt>
            <trkpt lon="101.373060" lat="14.602160">
                <ele>437.537109</ele>
                <time>2004-12-12T05:52:05Z</time>
            </trkpt>
            <trkpt lon="101.373188" lat="14.601839">
                <ele>436.575928</ele>
                <time>2004-12-12T05:52:17Z</time>
            </trkpt>
            <trkpt lon="101.373596" lat="14.601495">
                <ele>435.133911</ele>
                <time>2004-12-12T05:52:33Z</time>
            </trkpt>
            <trkpt lon="101.374090" lat="14.601002">
                <ele>434.653320</ele>
                <time>2004-12-12T05:52:52Z</time>
            </trkpt>
            <trkpt lon="101.374433" lat="14.600637">
                <ele>435.133911</ele>
                <time>2004-12-12T05:53:06Z</time>
            </trkpt>
            <trkpt lon="101.374755" lat="14.600358">
                <ele>435.133911</ele>
                <time>2004-12-12T05:53:20Z</time>
            </trkpt>
            <trkpt lon="101.374841" lat="14.600358">
                <ele>434.653320</ele>
                <time>2004-12-12T05:53:31Z</time>
            </trkpt>
            <trkpt lon="101.375012" lat="14.600487">
                <ele>434.172607</ele>
                <time>2004-12-12T05:53:41Z</time>
            </trkpt>
            <trkpt lon="101.375163" lat="14.600680">
                <ele>434.653320</ele>
                <time>2004-12-12T05:53:53Z</time>
            </trkpt>
            <trkpt lon="101.375291" lat="14.600680">
                <ele>435.614502</ele>
                <time>2004-12-12T05:54:02Z</time>
            </trkpt>
            <trkpt lon="101.375313" lat="14.600959">
                <ele>436.575928</ele>
                <time>2004-12-12T05:54:17Z</time>
            </trkpt>
            <trkpt lon="101.375377" lat="14.601324">
                <ele>435.133911</ele>
                <time>2004-12-12T05:54:27Z</time>
            </trkpt>
            <trkpt lon="101.375313" lat="14.601667">
                <ele>433.211304</ele>
                <time>2004-12-12T05:54:35Z</time>
            </trkpt>
            <trkpt lon="101.375291" lat="14.601967">
                <ele>432.730713</ele>
                <time>2004-12-12T05:54:42Z</time>
            </trkpt>
            <trkpt lon="101.375248" lat="14.602354">
                <ele>432.250000</ele>
                <time>2004-12-12T05:54:52Z</time>
            </trkpt>
            <trkpt lon="101.375141" lat="14.602783">
                <ele>431.769165</ele>
                <time>2004-12-12T05:55:04Z</time>
            </trkpt>
            <trkpt lon="101.375184" lat="14.603233">
                <ele>430.807983</ele>
                <time>2004-12-12T05:55:18Z</time>
            </trkpt>
            <trkpt lon="101.375184" lat="14.603298">
                <ele>430.807983</ele>
                <time>2004-12-12T05:55:21Z</time>
            </trkpt>
            <trkpt lon="101.375313" lat="14.603341">
                <ele>430.807983</ele>
                <time>2004-12-12T05:55:26Z</time>
            </trkpt>
            <trkpt lon="101.375849" lat="14.603448">
                <ele>429.365967</ele>
                <time>2004-12-12T05:55:40Z</time>
            </trkpt>
            <trkpt lon="101.375999" lat="14.603491">
                <ele>429.365967</ele>
                <time>2004-12-12T05:55:44Z</time>
            </trkpt>
            <trkpt lon="101.376429" lat="14.603834">
                <ele>427.923950</ele>
                <time>2004-12-12T05:55:56Z</time>
            </trkpt>
            <trkpt lon="101.377265" lat="14.604092">
                <ele>426.482056</ele>
                <time>2004-12-12T05:56:14Z</time>
            </trkpt>
            <trkpt lon="101.377394" lat="14.604092">
                <ele>426.001343</ele>
                <time>2004-12-12T05:56:17Z</time>
            </trkpt>
            <trkpt lon="101.378167" lat="14.604263">
                <ele>424.559448</ele>
                <time>2004-12-12T05:56:33Z</time>
            </trkpt>
            <trkpt lon="101.378853" lat="14.604328">
                <ele>425.040161</ele>
                <time>2004-12-12T05:56:49Z</time>
            </trkpt>
            <trkpt lon="101.379411" lat="14.604478">
                <ele>424.078735</ele>
                <time>2004-12-12T05:57:03Z</time>
            </trkpt>
            <trkpt lon="101.380076" lat="14.604735">
                <ele>424.559448</ele>
                <time>2004-12-12T05:57:20Z</time>
            </trkpt>
            <trkpt lon="101.380677" lat="14.604821">
                <ele>425.040161</ele>
                <time>2004-12-12T05:57:35Z</time>
            </trkpt>
            <trkpt lon="101.380999" lat="14.604821">
                <ele>425.520752</ele>
                <time>2004-12-12T05:57:43Z</time>
            </trkpt>
            <trkpt lon="101.381729" lat="14.604864">
                <ele>425.040161</ele>
                <time>2004-12-12T05:58:00Z</time>
            </trkpt>
            <trkpt lon="101.381814" lat="14.604864">
                <ele>425.040161</ele>
                <time>2004-12-12T05:58:02Z</time>
            </trkpt>
            <trkpt lon="101.382501" lat="14.605014">
                <ele>425.040161</ele>
                <time>2004-12-12T05:58:17Z</time>
            </trkpt>
            <trkpt lon="101.383424" lat="14.605207">
                <ele>424.078735</ele>
                <time>2004-12-12T05:58:36Z</time>
            </trkpt>
            <trkpt lon="101.383467" lat="14.605229">
                <ele>424.078735</ele>
                <time>2004-12-12T05:58:37Z</time>
            </trkpt>
            <trkpt lon="101.384325" lat="14.605336">
                <ele>422.636719</ele>
                <time>2004-12-12T05:58:53Z</time>
            </trkpt>
            <trkpt lon="101.384904" lat="14.605358">
                <ele>421.675415</ele>
                <time>2004-12-12T05:59:03Z</time>
            </trkpt>
            <trkpt lon="101.385291" lat="14.605551">
                <ele>421.194824</ele>
                <time>2004-12-12T05:59:11Z</time>
            </trkpt>
            <trkpt lon="101.386149" lat="14.606066">
                <ele>419.272217</ele>
                <time>2004-12-12T05:59:30Z</time>
            </trkpt>
            <trkpt lon="101.386535" lat="14.606409">
                <ele>419.752808</ele>
                <time>2004-12-12T05:59:43Z</time>
            </trkpt>
            <trkpt lon="101.386814" lat="14.606581">
                <ele>419.272217</ele>
                <time>2004-12-12T05:59:56Z</time>
            </trkpt>
            <trkpt lon="101.387372" lat="14.606602">
                <ele>418.310791</ele>
                <time>2004-12-12T06:00:10Z</time>
            </trkpt>
            <trkpt lon="101.388144" lat="14.606559">
                <ele>416.388184</ele>
                <time>2004-12-12T06:00:27Z</time>
            </trkpt>
            <trkpt lon="101.388574" lat="14.606538">
                <ele>416.388184</ele>
                <time>2004-12-12T06:00:41Z</time>
            </trkpt>
            <trkpt lon="101.388853" lat="14.606516">
                <ele>415.907471</ele>
                <time>2004-12-12T06:00:53Z</time>
            </trkpt>
            <trkpt lon="101.389346" lat="14.606473">
                <ele>414.946167</ele>
                <time>2004-12-12T06:01:08Z</time>
            </trkpt>
            <trkpt lon="101.389861" lat="14.606452">
                <ele>414.465454</ele>
                <time>2004-12-12T06:01:24Z</time>
            </trkpt>
            <trkpt lon="101.389883" lat="14.606452">
                <ele>413.984863</ele>
                <time>2004-12-12T06:01:30Z</time>
            </trkpt>
            <trkpt lon="101.389947" lat="14.606194">
                <ele>413.023560</ele>
                <time>2004-12-12T06:01:39Z</time>
            </trkpt>
            <trkpt lon="101.390162" lat="14.605787">
                <ele>411.581665</ele>
                <time>2004-12-12T06:01:55Z</time>
            </trkpt>
            <trkpt lon="101.390162" lat="14.605765">
                <ele>411.100952</ele>
                <time>2004-12-12T06:02:06Z</time>
            </trkpt>
            <trkpt lon="101.390140" lat="14.605787">
                <ele>411.100952</ele>
                <time>2004-12-12T06:02:12Z</time>
            </trkpt>
            <trkpt lon="101.390076" lat="14.605980">
                <ele>411.581665</ele>
                <time>2004-12-12T06:02:26Z</time>
            </trkpt>
            <trkpt lon="101.389904" lat="14.606366">
                <ele>413.023560</ele>
                <time>2004-12-12T06:02:45Z</time>
            </trkpt>
            <trkpt lon="101.389947" lat="14.606752">
                <ele>415.426880</ele>
                <time>2004-12-12T06:03:01Z</time>
            </trkpt>
            <trkpt lon="101.390204" lat="14.606881">
                <ele>415.426880</ele>
                <time>2004-12-12T06:03:13Z</time>
            </trkpt>
            <trkpt lon="101.390741" lat="14.606967">
                <ele>414.946167</ele>
                <time>2004-12-12T06:03:28Z</time>
            </trkpt>
            <trkpt lon="101.390891" lat="14.607117">
                <ele>414.946167</ele>
                <time>2004-12-12T06:03:41Z</time>
            </trkpt>
            <trkpt lon="101.391084" lat="14.607246">
                <ele>413.984863</ele>
                <time>2004-12-12T06:03:56Z</time>
            </trkpt>
            <trkpt lon="101.391406" lat="14.607353">
                <ele>413.504272</ele>
                <time>2004-12-12T06:04:10Z</time>
            </trkpt>
            <trkpt lon="101.392028" lat="14.607396">
                <ele>413.023560</ele>
                <time>2004-12-12T06:04:29Z</time>
            </trkpt>
            <trkpt lon="101.392672" lat="14.607310">
                <ele>411.581665</ele>
                <time>2004-12-12T06:04:44Z</time>
            </trkpt>
            <trkpt lon="101.393552" lat="14.607160">
                <ele>410.620239</ele>
                <time>2004-12-12T06:05:02Z</time>
            </trkpt>
            <trkpt lon="101.394603" lat="14.607053">
                <ele>408.217041</ele>
                <time>2004-12-12T06:05:23Z</time>
            </trkpt>
            <trkpt lon="101.395698" lat="14.606946">
                <ele>403.410400</ele>
                <time>2004-12-12T06:05:41Z</time>
            </trkpt>
            <trkpt lon="101.396985" lat="14.606774">
                <ele>399.565063</ele>
                <time>2004-12-12T06:06:02Z</time>
            </trkpt>
            <trkpt lon="101.398358" lat="14.606559">
                <ele>395.239136</ele>
                <time>2004-12-12T06:06:23Z</time>
            </trkpt>
            <trkpt lon="101.399281" lat="14.606431">
                <ele>392.835938</ele>
                <time>2004-12-12T06:06:38Z</time>
            </trkpt>
            <trkpt lon="101.400032" lat="14.606345">
                <ele>391.393799</ele>
                <time>2004-12-12T06:06:51Z</time>
            </trkpt>
            <trkpt lon="101.400375" lat="14.606795">
                <ele>391.874512</ele>
                <time>2004-12-12T06:07:03Z</time>
            </trkpt>
            <trkpt lon="101.401062" lat="14.607804">
                <ele>391.874512</ele>
                <time>2004-12-12T06:07:23Z</time>
            </trkpt>
            <trkpt lon="101.401985" lat="14.609177">
                <ele>388.990601</ele>
                <time>2004-12-12T06:07:48Z</time>
            </trkpt>
            <trkpt lon="101.402714" lat="14.610250">
                <ele>387.067993</ele>
                <time>2004-12-12T06:08:09Z</time>
            </trkpt>
            <trkpt lon="101.403337" lat="14.611194">
                <ele>384.184082</ele>
                <time>2004-12-12T06:08:26Z</time>
            </trkpt>
            <trkpt lon="101.404173" lat="14.612525">
                <ele>383.703247</ele>
                <time>2004-12-12T06:08:47Z</time>
            </trkpt>
            <trkpt lon="101.404624" lat="14.613404">
                <ele>382.742065</ele>
                <time>2004-12-12T06:09:01Z</time>
            </trkpt>
            <trkpt lon="101.404645" lat="14.613512">
                <ele>381.780640</ele>
                <time>2004-12-12T06:09:04Z</time>
            </trkpt>
            <trkpt lon="101.404474" lat="14.613597">
                <ele>379.377441</ele>
                <time>2004-12-12T06:09:11Z</time>
            </trkpt>
            <trkpt lon="101.403787" lat="14.614027">
                <ele>378.896851</ele>
                <time>2004-12-12T06:09:33Z</time>
            </trkpt>
            <trkpt lon="101.403573" lat="14.614327">
                <ele>379.858032</ele>
                <time>2004-12-12T06:09:48Z</time>
            </trkpt>
            <trkpt lon="101.403637" lat="14.614327">
                <ele>380.819458</ele>
                <time>2004-12-12T06:10:19Z</time>
            </trkpt>
            <trkpt lon="101.403530" lat="14.614520">
                <ele>381.300049</ele>
                <time>2004-12-12T06:11:01Z</time>
            </trkpt>
            <trkpt lon="101.403315" lat="14.614906">
                <ele>381.300049</ele>
                <time>2004-12-12T06:11:16Z</time>
            </trkpt>
            <trkpt lon="101.402972" lat="14.615657">
                <ele>384.184082</ele>
                <time>2004-12-12T06:11:40Z</time>
            </trkpt>
            <trkpt lon="101.402500" lat="14.616516">
                <ele>384.184082</ele>
                <time>2004-12-12T06:12:06Z</time>
            </trkpt>
            <trkpt lon="101.402092" lat="14.617095">
                <ele>384.184082</ele>
                <time>2004-12-12T06:12:25Z</time>
            </trkpt>
            <trkpt lon="101.401877" lat="14.617739">
                <ele>383.703247</ele>
                <time>2004-12-12T06:12:42Z</time>
            </trkpt>
            <trkpt lon="101.401577" lat="14.618318">
                <ele>384.664795</ele>
                <time>2004-12-12T06:13:00Z</time>
            </trkpt>
            <trkpt lon="101.401083" lat="14.618790">
                <ele>385.625977</ele>
                <time>2004-12-12T06:13:16Z</time>
            </trkpt>
            <trkpt lon="101.400461" lat="14.619412">
                <ele>388.029297</ele>
                <time>2004-12-12T06:13:37Z</time>
            </trkpt>
            <trkpt lon="101.399925" lat="14.620013">
                <ele>389.951904</ele>
                <time>2004-12-12T06:13:58Z</time>
            </trkpt>
            <trkpt lon="101.399667" lat="14.620485">
                <ele>391.393799</ele>
                <time>2004-12-12T06:14:14Z</time>
            </trkpt>
            <trkpt lon="101.399603" lat="14.621086">
                <ele>391.874512</ele>
                <time>2004-12-12T06:14:35Z</time>
            </trkpt>
            <trkpt lon="101.399517" lat="14.621773">
                <ele>393.316528</ele>
                <time>2004-12-12T06:14:57Z</time>
            </trkpt>
            <trkpt lon="101.399345" lat="14.622266">
                <ele>395.239136</ele>
                <time>2004-12-12T06:15:15Z</time>
            </trkpt>
            <trkpt lon="101.398938" lat="14.622545">
                <ele>396.200562</ele>
                <time>2004-12-12T06:15:30Z</time>
            </trkpt>
            <trkpt lon="101.398337" lat="14.622931">
                <ele>396.681152</ele>
                <time>2004-12-12T06:15:47Z</time>
            </trkpt>
            <trkpt lon="101.398165" lat="14.623039">
                <ele>397.161743</ele>
                <time>2004-12-12T06:15:52Z</time>
            </trkpt>
            <trkpt lon="101.398101" lat="14.623082">
                <ele>397.161743</ele>
                <time>2004-12-12T06:15:54Z</time>
            </trkpt>
            <trkpt lon="101.397414" lat="14.623489">
                <ele>397.642456</ele>
                <time>2004-12-12T06:16:12Z</time>
            </trkpt>
            <trkpt lon="101.396899" lat="14.623811">
                <ele>398.123169</ele>
                <time>2004-12-12T06:16:26Z</time>
            </trkpt>
            <trkpt lon="101.396620" lat="14.624155">
                <ele>398.603760</ele>
                <time>2004-12-12T06:16:35Z</time>
            </trkpt>
            <trkpt lon="101.396492" lat="14.624476">
                <ele>399.084351</ele>
                <time>2004-12-12T06:16:42Z</time>
            </trkpt>
            <trkpt lon="101.396062" lat="14.624541">
                <ele>398.603760</ele>
                <time>2004-12-12T06:16:50Z</time>
            </trkpt>
            <trkpt lon="101.395290" lat="14.624219">
                <ele>398.603760</ele>
                <time>2004-12-12T06:17:08Z</time>
            </trkpt>
            <trkpt lon="101.395075" lat="14.624133">
                <ele>398.123169</ele>
                <time>2004-12-12T06:17:13Z</time>
            </trkpt>
            <trkpt lon="101.394496" lat="14.623897">
                <ele>400.526489</ele>
                <time>2004-12-12T06:17:31Z</time>
            </trkpt>
            <trkpt lon="101.394410" lat="14.623747">
                <ele>403.410400</ele>
                <time>2004-12-12T06:17:39Z</time>
            </trkpt>
            <trkpt lon="101.394711" lat="14.623253">
                <ele>405.333008</ele>
                <time>2004-12-12T06:17:54Z</time>
            </trkpt>
            <trkpt lon="101.394753" lat="14.623125">
                <ele>405.333008</ele>
                <time>2004-12-12T06:17:57Z</time>
            </trkpt>
            <trkpt lon="101.394625" lat="14.622889">
                <ele>405.333008</ele>
                <time>2004-12-12T06:18:05Z</time>
            </trkpt>
            <trkpt lon="101.394539" lat="14.622867">
                <ele>405.333008</ele>
                <time>2004-12-12T06:18:07Z</time>
            </trkpt>
            <trkpt lon="101.394131" lat="14.622781">
                <ele>407.255615</ele>
                <time>2004-12-12T06:18:23Z</time>
            </trkpt>
            <trkpt lon="101.393723" lat="14.622695">
                <ele>408.217041</ele>
                <time>2004-12-12T06:18:40Z</time>
            </trkpt>
            <trkpt lon="101.393273" lat="14.622588">
                <ele>407.736328</ele>
                <time>2004-12-12T06:18:58Z</time>
            </trkpt>
            <trkpt lon="101.392672" lat="14.622459">
                <ele>410.139648</ele>
                <time>2004-12-12T06:19:17Z</time>
            </trkpt>
            <trkpt lon="101.392329" lat="14.622395">
                <ele>410.620239</ele>
                <time>2004-12-12T06:19:27Z</time>
            </trkpt>
            <trkpt lon="101.391470" lat="14.622459">
                <ele>408.697632</ele>
                <time>2004-12-12T06:19:43Z</time>
            </trkpt>
            <trkpt lon="101.390333" lat="14.622545">
                <ele>408.697632</ele>
                <time>2004-12-12T06:20:03Z</time>
            </trkpt>
            <trkpt lon="101.388896" lat="14.622631">
                <ele>407.736328</ele>
                <time>2004-12-12T06:20:28Z</time>
            </trkpt>
            <trkpt lon="101.388788" lat="14.622653">
                <ele>408.217041</ele>
                <time>2004-12-12T06:20:30Z</time>
            </trkpt>
            <trkpt lon="101.387908" lat="14.622695">
                <ele>409.178345</ele>
                <time>2004-12-12T06:20:50Z</time>
            </trkpt>
            <trkpt lon="101.386921" lat="14.622760">
                <ele>411.581665</ele>
                <time>2004-12-12T06:21:12Z</time>
            </trkpt>
            <trkpt lon="101.386042" lat="14.622824">
                <ele>412.062256</ele>
                <time>2004-12-12T06:21:32Z</time>
            </trkpt>
            <trkpt lon="101.385570" lat="14.622824">
                <ele>412.542847</ele>
                <time>2004-12-12T06:21:44Z</time>
            </trkpt>
            <trkpt lon="101.385505" lat="14.622095">
                <ele>413.984863</ele>
                <time>2004-12-12T06:22:03Z</time>
            </trkpt>
            <trkpt lon="101.385484" lat="14.621665">
                <ele>415.907471</ele>
                <time>2004-12-12T06:22:16Z</time>
            </trkpt>
            <trkpt lon="101.385376" lat="14.621022">
                <ele>418.310791</ele>
                <time>2004-12-12T06:22:35Z</time>
            </trkpt>
            <trkpt lon="101.385355" lat="14.620786">
                <ele>420.233398</ele>
                <time>2004-12-12T06:22:42Z</time>
            </trkpt>
            <trkpt lon="101.385505" lat="14.620743">
                <ele>420.714111</ele>
                <time>2004-12-12T06:22:47Z</time>
            </trkpt>
            <trkpt lon="101.386385" lat="14.620743">
                <ele>419.272217</ele>
                <time>2004-12-12T06:23:08Z</time>
            </trkpt>
            <trkpt lon="101.387007" lat="14.620721">
                <ele>418.791504</ele>
                <time>2004-12-12T06:23:26Z</time>
            </trkpt>
            <trkpt lon="101.387072" lat="14.620721">
                <ele>418.310791</ele>
                <time>2004-12-12T06:23:29Z</time>
            </trkpt>
            <trkpt lon="101.387093" lat="14.620721">
                <ele>417.830200</ele>
                <time>2004-12-12T06:23:40Z</time>
            </trkpt>
        </trkseg>
    </trk>
</gpx>